Time;durP1;ratioP1;P1;durP2;ratioP2;P2;SDS_P1;SDS_P2;PMS_P1;PMS_P2;Temp;Humidity;BMP_temperature;BMP_pressure;BME280_temperature;BME280_humidity;BME280_pressure;Samples;Min_cycle;Max_cycle;Signal;HPM_P1;HPM_P2
2022/08/07 00:02:15;;;;;;;1.75;1.13;;;30.90;99.90;;;;;;4998640;28;20216;-96
2022/08/07 00:05:08;;;;;;;4.10;2.00;;;31.00;99.90;;;;;;4998798;28;20293;-96
2022/08/07 00:07:41;;;;;;;1.75;1.40;;;31.30;99.90;;;;;;4999979;28;20234;-95
2022/08/07 00:10:13;;;;;;;2.00;1.70;;;31.00;99.90;;;;;;4999407;28;20229;-95
2022/08/07 00:13:04;;;;;;;2.53;1.23;;;31.00;99.90;;;;;;4999475;28;20214;-95
2022/08/07 00:15:56;;;;;;;3.20;1.30;;;31.00;99.90;;;;;;5001242;28;20210;-96
2022/08/07 00:18:29;;;;;;;2.88;1.25;;;31.00;99.90;;;;;;5001781;28;20218;-94
2022/08/07 00:21:02;;;;;;;1.98;1.00;;;30.90;99.90;;;;;;5003793;28;20272;-93
2022/08/07 00:26:46;;;;;;;1.23;1.02;;;30.70;98.60;;;;;;5000354;28;20234;-92
2022/08/07 00:29:39;;;;;;;2.85;1.50;;;30.80;99.90;;;;;;5013850;28;20619;-93
2022/08/07 00:32:12;;;;;;;2.13;1.30;;;30.80;99.90;;;;;;5016778;28;20201;-93
2022/08/07 00:34:47;;;;;;;2.30;1.35;;;30.60;99.90;;;;;;5015822;28;20210;-93
2022/08/07 00:37:23;;;;;;;1.40;1.20;;;30.60;99.90;;;;;;5016376;28;20205;-94
2022/08/07 00:39:59;;;;;;;2.28;1.20;;;30.40;99.10;;;;;;5017250;28;20229;-94
2022/08/07 00:42:31;;;;;;;3.50;1.13;;;30.40;99.90;;;;;;5016900;28;20194;-94
2022/08/07 00:45:11;;;;;;;1.85;1.30;;;30.30;99.00;;;;;;5012963;28;20216;-94
2022/08/07 00:47:45;;;;;;;2.75;1.20;;;30.30;99.90;;;;;;5008800;28;20241;-94
2022/08/07 00:50:37;;;;;;;2.15;0.85;;;30.20;98.60;;;;;;5007910;28;20210;-93
2022/08/07 00:53:22;;;;;;;1.80;1.10;;;30.30;98.40;;;;;;5007181;28;20272;-94
2022/08/07 00:55:54;;;;;;;1.25;1.00;;;30.20;97.50;;;;;;5000339;28;20261;-94
2022/08/07 00:58:33;;;;;;;1.55;0.90;;;30.20;97.30;;;;;;5012929;28;20221;-94
2022/08/07 01:01:06;;;;;;;3.03;0.90;;;30.10;96.50;;;;;;5015562;28;20245;-93
2022/08/07 01:03:38;;;;;;;1.63;1.13;;;30.10;96.30;;;;;;5016906;28;20262;-94
2022/08/07 01:06:29;;;;;;;1.38;0.98;;;30.10;96.50;;;;;;5009868;28;20280;-94
2022/08/07 01:09:01;;;;;;;1.90;1.10;;;30.10;96.50;;;;;;5013298;28;20207;-91
2022/08/07 01:11:34;;;;;;;1.10;0.85;;;30.40;97.60;;;;;;5016264;28;20190;-93
2022/08/07 01:14:26;;;;;;;1.40;0.88;;;30.70;96.40;;;;;;5017218;28;20202;-93
2022/08/07 01:17:01;;;;;;;1.73;1.08;;;31.10;95.40;;;;;;5017469;28;20202;-94
2022/08/07 01:19:36;;;;;;;1.67;0.90;;;31.30;95.00;;;;;;5008245;28;20218;-93
2022/08/07 01:22:15;;;;;;;1.88;1.10;;;31.20;95.80;;;;;;5012915;28;20210;-94
2022/08/07 01:24:59;;;;;;;1.23;1.00;;;31.30;94.80;;;;;;5015408;28;20186;-94
2022/08/07 01:27:51;;;;;;;1.30;1.20;;;31.30;95.40;;;;;;5016634;28;20218;-93
2022/08/07 01:30:25;;;;;;;2.53;1.35;;;31.70;95.30;;;;;;5016104;28;20210;-95
2022/08/07 01:32:58;;;;;;;1.25;1.10;;;32.00;95.30;;;;;;5017118;28;20241;-94
2022/08/07 01:35:31;;;;;;;2.22;1.20;;;32.10;95.10;;;;;;5017146;28;20210;-94
2022/08/07 01:38:25;;;;;;;1.20;1.10;;;32.20;95.00;;;;;;5016245;28;20237;-94
2022/08/07 01:41:01;;;;;;;1.50;1.00;;;32.20;94.60;;;;;;5008790;28;20252;-94
2022/08/07 01:43:33;;;;;;;1.58;0.90;;;32.30;93.50;;;;;;5001828;28;20264;-94
2022/08/07 01:46:08;;;;;;;19.08;17.30;;;32.40;92.80;;;;;;5005065;28;20296;-94
2022/08/07 01:48:43;;;;;;;10.65;9.55;;;32.20;93.30;;;;;;5004138;28;20206;-94
2022/08/07 01:51:20;;;;;;;1.98;1.70;;;31.50;92.90;;;;;;5003700;28;20213;-94
2022/08/07 01:54:15;;;;;;;3.30;1.20;;;31.10;93.70;;;;;;4985139;28;20338;-94
2022/08/07 01:57:08;;;;;;;1.88;1.40;;;30.60;94.40;;;;;;4982615;28;20257;-94
2022/08/07 02:00:01;;;;;;;2.40;1.30;;;30.10;94.10;;;;;;4989459;28;20221;-94
2022/08/07 02:02:46;;;;;;;4.30;2.08;;;29.60;94.50;;;;;;4989829;28;20640;-94
2022/08/07 02:05:42;;;;;;;3.28;1.13;;;29.20;94.70;;;;;;4983450;28;20643;-94
2022/08/07 02:08:30;;;;;;;1.95;1.50;;;28.70;94.10;;;;;;4997406;28;20215;-95
2022/08/07 02:11:08;;;;;;;5.10;4.10;;;28.40;94.50;;;;;;4996514;28;20210;-96
2022/08/07 02:14:01;;;;;;;57.57;53.00;;;27.90;95.20;;;;;;4992631;28;20265;-96
2022/08/07 02:16:33;;;;;;;2.77;2.57;;;27.60;96.60;;;;;;4981684;28;20255;-95
2022/08/07 02:19:12;;;;;;;2.70;1.20;;;27.30;95.90;;;;;;4983990;28;20273;-95
2022/08/07 02:22:04;;;;;;;2.20;1.53;;;27.10;95.30;;;;;;4982436;28;20274;-95
2022/08/07 02:24:37;;;;;;;6.47;5.87;;;26.90;95.80;;;;;;4983229;28;20287;-95
2022/08/07 02:27:18;;;;;;;2.77;1.90;;;26.70;96.60;;;;;;4982927;28;20265;-95
2022/08/07 02:29:53;;;;;;;2.37;1.10;;;26.60;96.20;;;;;;4982456;28;20214;-95
2022/08/07 02:32:25;;;;;;;3.50;1.20;;;26.50;96.60;;;;;;4981591;28;20219;-95
2022/08/07 02:35:00;;;;;;;1.47;0.90;;;26.40;96.60;;;;;;4982286;28;20298;-95
2022/08/07 02:37:41;;;;;;;3.87;1.20;;;26.20;96.60;;;;;;4981696;28;20213;-95
2022/08/07 02:40:14;;;;;;;3.10;1.10;;;26.10;96.10;;;;;;4982145;28;20222;-96
2022/08/07 02:43:08;;;;;;;2.20;1.00;;;25.90;96.00;;;;;;4982246;28;20282;-95
2022/08/07 02:45:43;;;;;;;1.10;0.70;;;25.80;97.00;;;;;;4983403;28;20222;-95
2022/08/07 02:48:31;;;;;;;1.60;0.90;;;25.60;97.40;;;;;;4984260;28;20250;-95
2022/08/07 02:51:08;;;;;;;1.60;1.00;;;25.50;97.20;;;;;;4984168;28;20206;-96
2022/08/07 02:54:01;;;;;;;1.27;1.00;;;25.40;97.10;;;;;;5002807;28;20278;-95
2022/08/07 02:56:35;;;;;;;1.33;0.77;;;25.30;97.90;;;;;;5003253;28;20210;-95
2022/08/07 02:59:14;;;;;;;1.07;0.73;;;25.20;97.30;;;;;;5002526;28;20584;-95
2022/08/07 03:01:46;;;;;;;1.47;0.80;;;25.10;97.10;;;;;;4999943;28;20269;-95
2022/08/07 03:04:33;;;;;;;1.67;1.03;;;25.00;98.50;;;;;;5002947;28;20281;-94
2022/08/07 03:07:06;;;;;;;3.40;0.97;;;24.80;99.00;;;;;;5001140;28;20234;-96
2022/08/07 03:09:40;;;;;;;1.00;0.90;;;24.70;98.70;;;;;;5000213;28;20205;-95
2022/08/07 03:12:16;;;;;;;2.40;1.17;;;24.70;99.10;;;;;;4999895;28;20225;-95
2022/08/07 03:15:01;;;;;;;3.90;1.40;;;24.50;99.90;;;;;;4999927;28;20210;-96
2022/08/07 03:17:38;;;;;;;3.27;1.40;;;24.40;99.90;;;;;;5000487;28;20261;-95
2022/08/07 03:20:24;;;;;;;1.50;1.00;;;24.20;99.90;;;;;;4999541;28;20317;-95
2022/08/07 03:22:57;;;;;;;2.27;1.00;;;24.20;99.90;;;;;;5000064;28;20214;-95
2022/08/07 03:25:30;;;;;;;4.80;1.17;;;24.10;99.90;;;;;;4999659;28;20215;-95
2022/08/07 03:28:14;;;;;;;3.53;0.90;;;24.00;99.90;;;;;;4999296;28;20329;-95
2022/08/07 03:31:19;;;;;;;2.60;1.10;;;23.90;99.90;;;;;;4999122;28;20687;-95
2022/08/07 03:34:13;;;;;;;1.30;1.20;;;23.80;99.90;;;;;;5000902;28;20207;-95
2022/08/07 03:36:53;;;;;;;3.47;1.13;;;23.70;99.90;;;;;;4999124;28;20210;-95
2022/08/07 03:39:28;;;;;;;2.10;0.93;;;23.60;99.90;;;;;;4999551;28;20213;-95
2022/08/07 03:42:21;;;;;;;1.73;1.10;;;23.50;99.90;;;;;;4998674;28;20210;-95
2022/08/07 03:44:56;;;;;;;2.80;0.93;;;23.30;99.90;;;;;;4999981;28;20214;-95
2022/08/07 03:47:34;;;;;;;1.30;0.93;;;23.20;99.90;;;;;;4999256;28;20337;-95
2022/08/07 03:50:21;;;;;;;3.90;1.13;;;23.20;99.90;;;;;;4999465;28;20214;-96
2022/08/07 03:52:59;;;;;;;1.83;1.47;;;23.00;99.90;;;;;;4998250;28;20293;-95
2022/08/07 03:55:33;;;;;;;1.33;1.00;;;22.80;99.90;;;;;;4999625;28;20206;-94
2022/08/07 03:58:25;;;;;;;1.97;1.23;;;22.70;99.90;;;;;;4999353;28;20242;-94
2022/08/07 04:01:19;;;;;;;2.40;1.00;;;22.60;99.90;;;;;;4999269;28;20210;-94
2022/08/07 04:03:55;;;;;;;1.03;0.90;;;22.40;99.90;;;;;;4999667;28;20210;-94
2022/08/07 04:06:26;;;;;;;3.00;1.00;;;22.30;99.90;;;;;;4999481;28;20230;-95
2022/08/07 04:09:07;;;;;;;2.43;1.30;;;22.20;99.90;;;;;;4998149;28;20265;-93
2022/08/07 04:11:46;;;;;;;1.30;1.00;;;22.10;99.90;;;;;;4998112;28;20670;-94
2022/08/07 04:14:38;;;;;;;1.97;1.10;;;22.10;99.90;;;;;;4999252;28;20379;-94
2022/08/07 04:17:17;;;;;;;1.63;1.13;;;21.90;99.90;;;;;;4999649;28;20311;-94
2022/08/07 04:20:15;;;;;;;2.23;1.10;;;21.80;99.90;;;;;;4999929;28;20248;-94
2022/08/07 04:22:48;;;;;;;3.07;1.27;;;21.70;99.90;;;;;;4999041;28;20240;-95
2022/08/07 04:25:31;;;;;;;1.30;0.90;;;21.60;99.90;;;;;;4998757;28;20233;-95
2022/08/07 04:28:11;;;;;;;5.80;1.23;;;21.50;99.90;;;;;;4999177;28;20306;-94
2022/08/07 04:33:38;;;;;;;1.83;1.30;;;21.40;99.90;;;;;;4998611;28;20220;-94
2022/08/07 04:36:12;;;;;;;4.40;1.50;;;21.30;99.90;;;;;;4998328;28;20249;-94
2022/08/07 04:38:44;;;;;;;5.03;1.60;;;21.20;99.90;;;;;;4997889;28;20209;-94
2022/08/07 04:41:14;;;;;;;3.80;1.77;;;21.10;99.90;;;;;;4997610;28;20218;-94
2022/08/07 04:43:49;;;;;;;4.07;2.13;;;21.00;99.90;;;;;;4997765;28;20213;-94
2022/08/07 04:46:46;;;;;;;3.07;1.67;;;21.00;99.90;;;;;;4998826;28;20592;-94
2022/08/07 04:49:43;;;;;;;1.37;1.10;;;20.90;99.90;;;;;;4998343;28;20280;-95
2022/08/07 04:52:41;;;;;;;2.13;1.27;;;20.90;99.90;;;;;;4996860;28;20210;-95
2022/08/07 04:55:27;;;;;;;3.43;1.40;;;20.80;99.90;;;;;;4654100;28;9999689;-93
2022/08/07 04:58:26;;;;;;;1.97;1.67;;;20.70;99.90;;;;;;4997460;28;20206;-95
2022/08/07 05:01:25;;;;;;;2.07;1.30;;;20.70;99.90;;;;;;4995474;28;20237;-94
2022/08/07 05:04:08;;;;;;;1.93;1.30;;;20.60;99.90;;;;;;4996974;28;20206;-95
2022/08/07 05:06:58;;;;;;;4.03;1.63;;;20.50;99.90;;;;;;4996672;28;20214;-94
2022/08/07 05:10:09;;;;;;;2.63;2.00;;;20.40;99.90;;;;;;5003127;28;20630;-95
2022/08/07 05:12:45;;;;;;;3.67;1.97;;;20.40;99.90;;;;;;4997574;28;20233;-96
2022/08/07 05:15:30;;;;;;;3.33;1.70;;;20.30;99.90;;;;;;4999302;28;20220;-96
2022/08/07 05:18:04;;;;;;;3.23;1.60;;;20.30;99.90;;;;;;4997486;28;20206;-95
2022/08/07 05:20:43;;;;;;;1.97;1.23;;;20.20;99.90;;;;;;4997513;28;20202;-95
2022/08/07 05:23:31;;;;;;;2.73;1.97;;;20.20;99.90;;;;;;5035864;23;20658;-95
2022/08/07 05:26:09;;;;;;;5.13;1.60;;;20.10;99.90;;;;;;5019127;28;20214;-94
2022/08/07 05:28:57;;;;;;;1.70;1.23;;;20.10;99.90;;;;;;5023255;28;20287;-95
2022/08/07 05:31:37;;;;;;;2.30;1.27;;;20.00;99.90;;;;;;5016651;28;20209;-95
2022/08/07 05:34:16;;;;;;;2.13;1.07;;;19.80;99.90;;;;;;5019353;28;20212;-95
2022/08/07 05:36:51;;;;;;;1.43;1.00;;;19.80;99.90;;;;;;5018609;28;20225;-95
2022/08/07 05:39:24;;;;;;;4.07;1.07;;;19.70;99.90;;;;;;5017808;28;20205;-95
2022/08/07 05:42:18;;;;;;;2.20;1.00;;;19.70;99.90;;;;;;5017286;28;20281;-95
2022/08/07 05:45:07;;;;;;;3.00;1.20;;;19.60;99.90;;;;;;5016856;28;20206;-95
2022/08/07 05:47:58;;;;;;;2.00;1.17;;;19.50;99.90;;;;;;5017517;28;20205;-95
2022/08/07 05:50:34;;;;;;;1.80;1.07;;;19.50;99.90;;;;;;5017358;28;20581;-95
2022/08/07 05:53:12;;;;;;;1.50;1.20;;;19.40;99.90;;;;;;5017950;28;20293;-96
2022/08/07 05:56:06;;;;;;;3.77;1.30;;;19.30;99.90;;;;;;5018028;28;20229;-94
2022/08/07 05:58:41;;;;;;;2.47;1.17;;;19.30;99.90;;;;;;5022568;28;20213;-93
2022/08/07 06:01:23;;;;;;;1.77;1.53;;;19.20;99.90;;;;;;5029880;28;20210;-94
2022/08/07 06:03:58;;;;;;;1.83;1.33;;;19.20;99.90;;;;;;5044222;28;20209;-94
2022/08/07 06:06:30;;;;;;;3.53;1.33;;;19.20;99.90;;;;;;5017029;28;20209;-94
2022/08/07 06:09:03;;;;;;;3.40;1.50;;;19.10;99.90;;;;;;4999688;28;20286;-94
2022/08/07 06:11:35;;;;;;;1.47;1.20;;;19.10;99.90;;;;;;4998763;28;20210;-94
2022/08/07 06:14:08;;;;;;;1.67;1.43;;;19.00;99.90;;;;;;4997509;28;20222;-94
2022/08/07 06:16:59;;;;;;;4.37;1.30;;;19.00;99.90;;;;;;5002356;28;20230;-94
2022/08/07 06:19:38;;;;;;;1.30;1.00;;;18.90;99.90;;;;;;4998358;28;20281;-95
2022/08/07 06:22:32;;;;;;;1.43;1.33;;;18.80;99.90;;;;;;5002063;28;20280;-94
2022/08/07 06:25:09;;;;;;;2.10;1.17;;;18.80;99.90;;;;;;5016656;28;20233;-94
2022/08/07 06:27:43;;;;;;;1.73;1.23;;;18.80;99.90;;;;;;5015472;28;20209;-94
2022/08/07 06:30:33;;;;;;;1.37;1.00;;;18.70;99.90;;;;;;5015516;28;20698;-95
2022/08/07 06:33:13;;;;;;;1.43;1.13;;;18.70;99.90;;;;;;5016497;28;20205;-94
2022/08/07 06:35:46;;;;;;;1.73;1.20;;;18.70;99.90;;;;;;5017648;28;20237;-95
2022/08/07 06:38:38;;;;;;;2.63;1.13;;;18.60;99.90;;;;;;5016119;28;20218;-95
2022/08/07 06:41:34;;;;;;;3.23;1.67;;;18.60;99.90;;;;;;5015898;28;20209;-95
2022/08/07 06:44:27;;;;;;;3.40;1.40;;;18.50;99.90;;;;;;5015145;28;20208;-95
2022/08/07 06:47:06;;;;;;;1.63;1.37;;;18.50;99.90;;;;;;5016092;28;20209;-95
2022/08/07 06:49:50;;;;;;;2.43;0.97;;;18.50;99.90;;;;;;5015636;28;20256;-95
2022/08/07 06:52:32;;;;;;;2.57;1.30;;;18.40;99.90;;;;;;5015452;28;20617;-95
2022/08/07 06:55:10;;;;;;;3.23;1.50;;;18.40;99.90;;;;;;5016039;28;20240;-95
2022/08/07 06:58:04;;;;;;;1.67;1.43;;;18.40;99.90;;;;;;5016552;28;20205;-96
2022/08/07 07:00:41;;;;;;;1.40;1.30;;;18.30;99.90;;;;;;5015820;28;20742;-95
2022/08/07 07:03:15;;;;;;;2.27;1.30;;;18.40;99.90;;;;;;5022440;28;20208;-94
2022/08/07 07:05:48;;;;;;;2.33;1.13;;;18.30;99.90;;;;;;5020230;28;20292;-95
2022/08/07 07:08:35;;;;;;;3.23;1.30;;;18.30;99.90;;;;;;5021646;28;20229;-95
2022/08/07 07:11:15;;;;;;;2.10;1.40;;;18.20;99.90;;;;;;5019595;28;20212;-96
2022/08/07 07:14:08;;;;;;;1.37;1.27;;;18.20;99.90;;;;;;5022321;28;20292;-95
2022/08/07 07:16:45;;;;;;;2.63;1.60;;;18.20;99.90;;;;;;5023665;28;20209;-95
2022/08/07 07:19:31;;;;;;;1.87;1.20;;;18.20;99.90;;;;;;5023059;28;20209;-95
2022/08/07 07:22:25;;;;;;;2.97;1.43;;;18.10;99.90;;;;;;5034748;28;20265;-95
2022/08/07 07:25:11;;;;;;;1.60;1.23;;;18.10;99.90;;;;;;5039251;28;20270;-95
2022/08/07 07:28:11;;;;;;;1.47;1.37;;;18.00;99.90;;;;;;5039258;28;20479;-94
2022/08/07 07:31:05;;;;;;;2.97;1.60;;;18.00;99.90;;;;;;5038212;28;20225;-94
2022/08/07 07:33:39;;;;;;;4.20;1.83;;;18.00;99.90;;;;;;5023109;28;20213;-94
2022/08/07 07:36:13;;;;;;;2.90;1.50;;;17.90;99.90;;;;;;5019985;28;20271;-94
2022/08/07 07:38:47;;;;;;;1.67;1.33;;;17.90;99.90;;;;;;5019867;28;20291;-94
2022/08/07 07:41:22;;;;;;;2.20;1.63;;;17.90;99.90;;;;;;5017872;28;20217;-94
2022/08/07 07:44:15;;;;;;;3.00;1.60;;;17.80;99.90;;;;;;5018956;28;20297;-94
2022/08/07 07:46:57;;;;;;;2.33;1.40;;;17.80;99.90;;;;;;5019485;28;20208;-94
2022/08/07 07:49:49;;;;;;;2.47;1.50;;;17.70;99.90;;;;;;5019009;28;20292;-94
2022/08/07 07:52:45;;;;;;;2.30;1.60;;;17.70;99.90;;;;;;5018058;28;20213;-93
2022/08/07 07:55:19;;;;;;;1.90;1.70;;;17.60;99.90;;;;;;5018947;28;20217;-93
2022/08/07 07:57:53;;;;;;;4.10;1.70;;;17.60;99.90;;;;;;5018659;28;20201;-94
2022/08/07 08:00:30;;;;;;;2.50;1.90;;;17.60;99.90;;;;;;5018731;28;20228;-95
2022/08/07 08:03:08;;;;;;;3.90;2.37;;;17.60;99.90;;;;;;5018546;28;20214;-94
2022/08/07 08:05:46;;;;;;;3.33;2.10;;;17.60;99.90;;;;;;5018497;28;20217;-95
2022/08/07 08:08:31;;;;;;;4.17;2.27;;;17.60;99.90;;;;;;5018280;28;20217;-95
2022/08/07 08:11:09;;;;;;;5.37;2.70;;;17.60;99.90;;;;;;5017111;28;20233;-95
2022/08/07 08:13:49;;;;;;;6.97;3.10;;;17.50;99.90;;;;;;5018546;28;20217;-94
2022/08/07 08:16:33;;;;;;;9.13;3.50;;;17.50;99.90;;;;;;5018980;28;20212;-93
2022/08/07 08:19:07;;;;;;;7.73;4.20;;;17.40;99.90;;;;;;5017979;28;20257;-94
2022/08/07 08:27:53;;;;;;;6.13;2.77;;;17.40;99.90;;;;;;5017985;28;20215;-95
2022/08/07 08:30:35;;;;;;;3.97;2.30;;;17.30;99.90;;;;;;5017163;28;20233;-94
2022/08/07 08:33:17;;;;;;;3.73;2.10;;;17.20;99.90;;;;;;5017945;28;20213;-95
2022/08/07 08:35:54;;;;;;;3.73;1.90;;;17.10;99.90;;;;;;5017243;28;20205;-94
2022/08/07 08:38:32;;;;;;;1.90;1.70;;;17.10;99.90;;;;;;5017077;28;20205;-94
2022/08/07 08:41:24;;;;;;;3.70;2.20;;;17.10;99.90;;;;;;5015889;28;20234;-95
2022/08/07 08:44:23;;;;;;;2.80;2.07;;;17.10;99.90;;;;;;5016435;28;20205;-94
2022/08/07 08:47:06;;;;;;;1.40;1.20;;;17.00;99.90;;;;;;5016634;28;20216;-94
2022/08/07 08:50:04;;;;;;;4.53;1.80;;;17.00;99.90;;;;;;5017376;28;20253;-95
2022/08/07 08:52:39;;;;;;;2.30;1.83;;;16.90;99.90;;;;;;5014776;28;20241;-95
2022/08/07 08:55:31;;;;;;;3.47;1.90;;;16.90;99.90;;;;;;5017536;28;20221;-95
2022/08/07 08:58:33;;;;;;;1.67;1.53;;;16.80;99.90;;;;;;5017431;28;20292;-94
2022/08/07 09:01:14;;;;;;;4.03;2.20;;;16.80;99.90;;;;;;5016273;28;20205;-95
2022/08/07 09:04:00;;;;;;;1.90;1.70;;;16.80;99.90;;;;;;5019848;28;20256;-94
2022/08/07 09:06:45;;;;;;;2.67;1.90;;;16.70;99.90;;;;;;5019495;28;20226;-94
2022/08/07 09:09:46;;;;;;;3.10;1.70;;;16.70;99.90;;;;;;5016674;28;20701;-94
2022/08/07 09:12:43;;;;;;;5.43;1.93;;;16.70;99.90;;;;;;5016071;28;20209;-95
2022/08/07 09:15:52;;;;;;;1.80;1.50;;;16.70;99.90;;;;;;5017127;28;20209;-94
2022/08/07 09:19:11;;;;;;;2.03;1.60;;;16.70;99.90;;;;;;5017010;28;20202;-95
2022/08/07 09:22:16;;;;;;;1.83;1.73;;;16.70;99.90;;;;;;5015910;28;20292;-94
2022/08/07 09:25:12;;;;;;;4.23;1.70;;;16.70;99.90;;;;;;5029903;28;20295;-94
2022/08/07 09:27:58;;;;;;;1.50;1.33;;;16.70;99.90;;;;;;5041253;28;20221;-94
2022/08/07 09:30:43;;;;;;;2.30;1.60;;;16.60;99.90;;;;;;5035513;28;20238;-94
2022/08/07 09:33:48;;;;;;;2.33;1.50;;;16.60;99.90;;;;;;5038951;28;20236;-95
2022/08/07 09:36:31;;;;;;;5.03;1.63;;;16.60;99.90;;;;;;5036259;28;20222;-95
2022/08/07 09:39:20;;;;;;;2.60;1.60;;;16.60;99.90;;;;;;5036537;28;20654;-94
2022/08/07 09:42:24;;;;;;;1.60;1.50;;;16.70;99.90;;;;;;5035964;28;20283;-94
2022/08/07 09:45:11;;;;;;;2.90;1.70;;;16.60;99.90;;;;;;5036650;28;20212;-95
2022/08/07 09:48:15;;;;;;;2.37;1.40;;;16.60;99.90;;;;;;5036037;28;20207;-94
2022/08/07 09:51:04;;;;;;;2.90;1.53;;;16.60;99.90;;;;;;5040231;28;20236;-94
2022/08/07 09:54:01;;;;;;;3.10;1.63;;;16.60;99.90;;;;;;5020566;28;20213;-94
2022/08/07 09:56:59;;;;;;;2.63;1.43;;;16.70;99.90;;;;;;4999530;28;20245;-94
2022/08/07 09:59:53;;;;;;;1.53;1.40;;;16.60;99.90;;;;;;4997003;28;20221;-94
2022/08/07 10:02:56;;;;;;;2.17;1.70;;;16.60;99.90;;;;;;4998427;28;20216;-95
2022/08/07 10:06:26;;;;;;;2.73;1.47;;;16.60;99.90;;;;;;4996279;28;20206;-94
2022/08/07 10:09:28;;;;;;;3.57;1.50;;;16.60;99.90;;;;;;4982049;28;20206;-95
2022/08/07 10:12:51;;;;;;;1.37;1.27;;;16.50;99.90;;;;;;4998397;28;20241;-95
2022/08/07 10:15:42;;;;;;;1.57;1.47;;;16.50;99.90;;;;;;5005212;28;20212;-94
2022/08/07 10:18:51;;;;;;;2.33;1.60;;;16.40;99.90;;;;;;5017332;28;20217;-94
2022/08/07 10:21:37;;;;;;;3.73;1.37;;;16.40;99.90;;;;;;5019317;28;20205;-94
2022/08/07 10:25:04;;;;;;;2.97;1.53;;;16.40;99.90;;;;;;4999807;28;20249;-95
2022/08/07 10:28:04;;;;;;;2.23;1.70;;;16.30;99.90;;;;;;5000244;28;20198;-95
2022/08/07 10:30:45;;;;;;;3.30;1.57;;;16.30;99.90;;;;;;4996273;28;20233;-94
2022/08/07 10:33:31;;;;;;;2.00;1.47;;;16.30;99.90;;;;;;4998011;28;20226;-95
2022/08/07 10:36:36;;;;;;;2.47;1.70;;;16.20;99.90;;;;;;5000617;28;20210;-94
2022/08/07 10:39:19;;;;;;;3.40;1.67;;;16.20;99.90;;;;;;5002395;28;20206;-94
2022/08/07 10:42:05;;;;;;;2.43;1.40;;;16.20;99.90;;;;;;5002551;28;20221;-95
2022/08/07 10:44:59;;;;;;;2.50;1.53;;;16.10;99.90;;;;;;5000676;28;20214;-95
2022/08/07 10:47:41;;;;;;;1.70;1.60;;;16.10;99.90;;;;;;5005181;28;20236;-94
2022/08/07 10:50:26;;;;;;;2.43;1.53;;;16.10;99.90;;;;;;5000401;28;20238;-95
2022/08/07 10:53:09;;;;;;;2.80;1.40;;;16.00;99.90;;;;;;5015694;28;20213;-95
2022/08/07 10:55:54;;;;;;;2.53;1.70;;;15.90;99.90;;;;;;5019755;28;20284;-94
2022/08/07 10:58:58;;;;;;;1.67;1.57;;;15.90;99.90;;;;;;5020286;28;20236;-94
2022/08/07 11:01:50;;;;;;;3.47;1.80;;;15.90;99.90;;;;;;5021961;28;20255;-95
2022/08/07 11:04:56;;;;;;;1.70;1.60;;;15.90;99.90;;;;;;5023311;28;20229;-92
2022/08/07 11:07:38;;;;;;;3.00;1.50;;;15.90;99.90;;;;;;5019985;28;20213;-93
2022/08/07 11:10:36;;;;;;;2.23;1.60;;;15.90;99.90;;;;;;5023043;28;20240;-94
2022/08/07 11:13:15;;;;;;;1.57;1.43;;;15.80;99.90;;;;;;5020711;28;20236;-94
2022/08/07 11:16:17;;;;;;;2.10;1.70;;;15.80;99.90;;;;;;5037303;28;20227;-94
2022/08/07 11:18:53;;;;;;;1.97;1.40;;;15.80;99.90;;;;;;5046292;28;20208;-92
2022/08/07 11:21:38;;;;;;;1.63;1.53;;;15.80;99.90;;;;;;5039733;28;20706;-93
2022/08/07 11:24:21;;;;;;;2.93;2.10;;;15.80;99.90;;;;;;4999925;28;20222;-94
2022/08/07 11:26:58;;;;;;;2.93;1.90;;;15.70;99.90;;;;;;4999734;28;20218;-93
2022/08/07 11:29:39;;;;;;;2.40;1.73;;;15.70;99.90;;;;;;4999625;28;20268;-94
2022/08/07 11:32:24;;;;;;;1.73;1.60;;;15.70;99.90;;;;;;4998328;28;20329;-93
2022/08/07 11:35:03;;;;;;;1.73;1.53;;;15.60;99.90;;;;;;4999219;28;20300;-93
2022/08/07 11:38:05;;;;;;;3.90;2.13;;;15.50;99.90;;;;;;5001253;28;20218;-94
2022/08/07 11:40:50;;;;;;;4.10;1.70;;;15.40;99.90;;;;;;4998567;28;20210;-94
2022/08/07 11:43:25;;;;;;;2.90;1.70;;;15.40;99.90;;;;;;4998934;28;20206;-94
2022/08/07 11:46:30;;;;;;;4.00;1.90;;;15.40;99.90;;;;;;4999448;28;20206;-94
2022/08/07 11:49:45;;;;;;;1.83;1.67;;;15.40;99.90;;;;;;4998582;28;20301;-94
2022/08/07 11:52:56;;;;;;;2.37;1.97;;;15.40;99.90;;;;;;5005278;28;20678;-94
2022/08/07 11:55:45;;;;;;;2.00;1.60;;;15.40;99.90;;;;;;5019050;28;20207;-94
2022/08/07 11:58:50;;;;;;;3.27;1.50;;;15.30;99.90;;;;;;5019001;28;20206;-94
2022/08/07 12:01:39;;;;;;;1.73;1.63;;;15.30;99.90;;;;;;5018559;28;20200;-94
2022/08/07 12:04:43;;;;;;;2.20;1.93;;;15.30;99.90;;;;;;5020556;28;20204;-94
2022/08/07 12:07:22;;;;;;;2.00;1.80;;;15.30;99.90;;;;;;5022533;28;20624;-95
2022/08/07 12:10:16;;;;;;;2.57;1.57;;;15.30;99.90;;;;;;5020529;28;20206;-94
2022/08/07 12:13:00;;;;;;;3.57;1.93;;;15.30;99.90;;;;;;5020583;28;20245;-94
2022/08/07 12:15:46;;;;;;;1.90;1.70;;;15.30;99.90;;;;;;5019089;28;20225;-94
2022/08/07 12:18:42;;;;;;;3.60;1.70;;;15.20;99.90;;;;;;5018700;28;20218;-94
2022/08/07 12:21:32;;;;;;;2.43;1.87;;;15.20;99.90;;;;;;5017266;28;20217;-94
2022/08/07 12:24:32;;;;;;;2.47;2.20;;;15.20;99.90;;;;;;4998378;28;20711;-94
2022/08/07 12:27:17;;;;;;;4.37;1.77;;;15.10;99.90;;;;;;4998726;28;20213;-94
2022/08/07 12:30:10;;;;;;;2.40;1.80;;;15.10;99.90;;;;;;5001251;28;20260;-94
2022/08/07 12:32:48;;;;;;;2.53;2.33;;;15.10;99.90;;;;;;4998196;28;20234;-94
2022/08/07 12:35:21;;;;;;;3.00;2.30;;;15.10;99.90;;;;;;5001913;28;20226;-94
2022/08/07 12:37:56;;;;;;;3.43;2.60;;;15.00;99.90;;;;;;4998460;28;20272;-94
2022/08/07 12:40:41;;;;;;;3.07;2.30;;;15.00;99.90;;;;;;4999889;28;20402;-94
2022/08/07 12:43:20;;;;;;;6.73;2.30;;;15.00;99.90;;;;;;5003242;28;20241;-94
2022/08/07 12:46:24;;;;;;;3.50;1.87;;;15.00;99.90;;;;;;5012985;28;20581;-94
2022/08/07 12:49:09;;;;;;;3.67;2.40;;;14.90;99.90;;;;;;5018060;28;20274;-94
2022/08/07 12:52:07;;;;;;;2.30;2.10;;;14.90;99.90;;;;;;5017309;28;20301;-91
2022/08/07 12:54:59;;;;;;;2.70;2.50;;;14.80;99.90;;;;;;5018202;28;20202;-94
2022/08/07 12:57:38;;;;;;;3.23;2.60;;;14.80;99.90;;;;;;5002662;28;20297;-94
2022/08/07 13:00:40;;;;;;;2.90;2.10;;;14.90;99.90;;;;;;4997745;28;20234;-95
2022/08/07 13:03:45;;;;;;;4.37;2.10;;;14.90;99.90;;;;;;4998686;28;20218;-94
2022/08/07 13:06:54;;;;;;;2.23;1.87;;;14.90;99.90;;;;;;4998489;28;20226;-94
2022/08/07 13:10:02;;;;;;;3.03;2.33;;;14.90;99.90;;;;;;5014646;28;20213;-94
2022/08/07 13:13:17;;;;;;;3.97;2.63;;;14.90;99.90;;;;;;5037186;28;20252;-94
2022/08/07 13:16:17;;;;;;;4.47;2.57;;;15.00;99.90;;;;;;5071828;23;20293;-92
2022/08/07 13:18:58;;;;;;;4.00;2.60;;;15.00;99.90;;;;;;5037294;28;20257;-94
2022/08/07 13:21:33;;;;;;;2.53;1.80;;;14.90;99.90;;;;;;5035691;28;20197;-94
2022/08/07 13:24:28;;;;;;;3.93;1.97;;;14.90;99.90;;;;;;5017682;28;20218;-94
2022/08/07 13:27:09;;;;;;;3.50;1.57;;;14.90;99.90;;;;;;5017636;28;20193;-94
2022/08/07 13:29:53;;;;;;;3.13;2.00;;;14.90;99.90;;;;;;5013595;28;20221;-93
2022/08/07 13:32:30;;;;;;;1.97;1.80;;;14.90;99.90;;;;;;5015828;28;20306;-94
2022/08/07 13:35:12;;;;;;;2.47;1.73;;;14.90;99.90;;;;;;5009996;28;20210;-93
2022/08/07 13:37:59;;;;;;;3.77;2.10;;;15.00;99.90;;;;;;4997526;28;20202;-94
2022/08/07 13:40:35;;;;;;;2.90;2.03;;;15.00;99.90;;;;;;4997313;28;20221;-93
2022/08/07 13:43:16;;;;;;;2.43;2.20;;;15.00;99.90;;;;;;4998130;28;20210;-93
2022/08/07 13:45:56;;;;;;;3.07;2.00;;;15.00;99.90;;;;;;4998054;28;20284;-92
2022/08/07 13:48:50;;;;;;;3.23;2.13;;;15.00;99.90;;;;;;4997858;28;20202;-93
2022/08/07 13:51:30;;;;;;;2.87;2.23;;;15.10;99.90;;;;;;4997056;28;20278;-94
2022/08/07 13:54:30;;;;;;;3.07;2.57;;;15.10;99.90;;;;;;5016110;28;20201;-94
2022/08/07 13:57:08;;;;;;;2.83;2.30;;;15.10;99.90;;;;;;5017071;28;20217;-93
2022/08/07 13:59:54;;;;;;;2.57;2.20;;;15.20;99.90;;;;;;5019213;28;20205;-94
2022/08/07 14:02:29;;;;;;;2.33;2.13;;;15.20;99.90;;;;;;5016149;28;20338;-94
2022/08/07 14:05:16;;;;;;;2.50;1.90;;;15.20;99.90;;;;;;5017362;28;20206;-93
2022/08/07 14:07:52;;;;;;;2.87;2.00;;;15.20;99.90;;;;;;5019165;28;20244;-94
2022/08/07 14:10:37;;;;;;;2.40;2.20;;;15.30;99.90;;;;;;5019054;28;20205;-94
2022/08/07 14:13:15;;;;;;;2.73;1.93;;;15.30;99.90;;;;;;5020344;28;20331;-94
2022/08/07 14:15:55;;;;;;;6.23;2.30;;;15.40;99.90;;;;;;5022828;28;20209;-94
2022/08/07 14:18:32;;;;;;;2.93;2.10;;;15.40;99.90;;;;;;5020680;28;20221;-94
2022/08/07 14:21:11;;;;;;;4.73;2.47;;;15.50;99.90;;;;;;5019638;28;20545;-93
2022/08/07 14:24:08;;;;;;;3.43;2.50;;;15.50;99.90;;;;;;5020705;28;20201;-94
2022/08/07 14:26:44;;;;;;;2.53;2.10;;;15.60;99.90;;;;;;5023382;28;20213;-94
2022/08/07 14:29:24;;;;;;;3.27;2.30;;;15.70;99.90;;;;;;5023133;28;20205;-94
2022/08/07 14:32:20;;;;;;;4.93;2.17;;;15.70;99.90;;;;;;5037185;28;20210;-94